Time;durP1;ratioP1;P1;durP2;ratioP2;P2;SDS_P1;SDS_P2;PMS_P1;PMS_P2;Temp;Humidity;BMP_temperature;BMP_pressure;BME280_temperature;BME280_humidity;BME280_pressure;Samples;Min_cycle;Max_cycle;Signal;HPM_P1;HPM_P2
2021/12/18 00:00:04;;;;;;;26.27;3.88;;;;;;;24.83;49.65;101440.66;7309678;19;158889;-32
2021/12/18 00:02:29;;;;;;;11.82;2.40;;;;;;;24.83;48.87;101444.13;7306657;19;129272;-34
2021/12/18 00:04:55;;;;;;;17.88;3.08;;;;;;;24.79;49.71;101442.69;7309018;19;154401;-33
2021/12/18 00:07:20;;;;;;;14.55;2.60;;;;;;;24.83;49.04;101440.66;7308665;19;154519;-33
2021/12/18 00:09:46;;;;;;;12.13;2.57;;;;;;;24.84;49.03;101435.28;7309244;19;159290;-34
2021/12/18 00:12:12;;;;;;;19.67;3.47;;;;;;;24.82;49.49;101431.09;7311137;19;129172;-33
2021/12/18 00:14:37;;;;;;;14.80;2.77;;;;;;;24.75;50.14;101420.19;7307856;19;154666;-35
2021/12/18 00:17:03;;;;;;;19.20;3.10;;;;;;;24.78;49.99;101429.63;7311663;19;129428;-34
2021/12/18 00:19:29;;;;;;;16.25;2.65;;;;;;;24.79;49.31;101420.81;7310587;19;130185;-39
2021/12/18 00:21:54;;;;;;;19.15;3.30;;;;;;;24.69;49.95;101409.31;7310490;19;129861;-34
2021/12/18 00:24:20;;;;;;;9.90;1.97;;;;;;;24.77;48.94;101422.72;7308637;19;154425;-34
2021/12/18 00:26:46;;;;;;;14.85;2.53;;;;;;;24.77;49.37;101433.25;7308871;19;129442;-32
2021/12/18 00:29:11;;;;;;;17.80;3.00;;;;;;;24.74;49.73;101431.69;7310548;19;129330;-36
2021/12/18 00:31:36;;;;;;;25.65;3.90;;;;;;;24.75;50.45;101424.63;7308172;19;157604;-38
2021/12/18 00:34:02;;;;;;;12.13;2.33;;;;;;;24.74;49.50;101418.53;7308161;19;155269;-35
2021/12/18 00:36:27;;;;;;;17.90;3.57;;;;;;;24.67;49.62;101408.53;7306955;19;142391;-40
2021/12/18 00:38:52;;;;;;;8.50;1.87;;;;;;;24.75;49.54;101419.34;7306824;19;158308;-34
2021/12/18 00:44:04;;;;;;;30.65;4.93;;;;;;;24.71;49.69;101423.19;7303578;19;128997;-35
2021/12/18 00:46:39;;;;;;;18.10;3.20;;;;;;;24.70;51.25;101417.06;7308660;19;129721;-35
2021/12/18 00:49:07;;;;;;;21.27;3.33;;;;;;;24.69;49.76;101415.41;7311009;19;130068;-32
2021/12/18 00:51:34;;;;;;;16.58;2.72;;;;;;;24.69;49.77;101419.81;7309836;19;129323;-36
2021/12/18 00:53:59;;;;;;;15.50;3.00;;;;;;;24.70;49.64;101410.97;7309492;19;128855;-35
2021/12/18 00:56:25;;;;;;;12.07;2.07;;;;;;;24.70;49.07;101416.22;7307675;19;129361;-35
2021/12/18 00:58:51;;;;;;;16.07;2.87;;;;;;;24.69;49.62;101406.69;7310129;19;130629;-35
2021/12/18 01:01:21;;;;;;;17.23;3.03;;;;;;;24.71;50.53;101410.84;7308379;19;130921;-35
2021/12/18 01:03:48;;;;;;;22.90;4.20;;;;;;;24.68;50.27;101413.72;7306621;19;129090;-32
2021/12/18 01:06:15;;;;;;;19.35;3.05;;;;;;;24.65;49.25;101402.56;7308134;19;129152;-38
2021/12/18 01:08:40;;;;;;;12.88;2.10;;;;;;;24.67;49.62;101406.75;7308905;19;129128;-37
2021/12/18 01:11:28;;;;;;;15.50;2.77;;;;;;;24.65;49.31;101407.81;7310479;19;130527;-40
2021/12/18 01:14:17;;;;;;;;;;;;;;;24.68;51.71;101415.50;7309828;19;129616;-38
2021/12/18 01:24:36;;;;;;;16.83;2.60;;;;;;;24.62;49.98;101434.34;7316545;19;129286;-38
2021/12/18 01:27:01;;;;;;;17.83;3.17;;;;;;;24.59;50.47;101424.06;7315165;19;154869;-39
2021/12/18 01:29:26;;;;;;;13.13;2.38;;;;;;;24.61;49.25;101430.06;7315003;19;158594;-39
2021/12/18 01:31:51;;;;;;;9.67;2.00;;;;;;;24.60;50.00;101431.84;7315302;19;150030;-37
2021/12/18 01:34:17;;;;;;;11.43;2.00;;;;;;;24.60;49.46;101433.63;7313754;19;154935;-38
2021/12/18 01:36:43;;;;;;;16.13;2.97;;;;;;;24.58;49.75;101432.91;7312198;19;154879;-38
2021/12/18 01:39:08;;;;;;;19.37;3.13;;;;;;;24.58;49.91;101432.91;7315763;19;130294;-35
2021/12/18 01:41:49;;;;;;;15.00;2.90;;;;;;;24.54;50.22;101431.47;7314339;19;158535;-39
2021/12/18 01:51:13;;;;;;;8.23;2.15;;;;;;;24.52;50.08;101436.84;7313055;19;129050;-37
2021/12/18 01:52:34;;;;;;;13.27;2.30;;;;;;;24.53;49.90;101414.03;7315701;19;129995;-39
2021/12/18 01:54:59;;;;;;;11.27;2.05;;;;;;;24.45;49.76;101401.44;7314835;19;128875;-37
2021/12/18 01:57:25;;;;;;;14.32;2.55;;;;;;;24.51;49.58;101418.53;7315701;19;129271;-35
2021/12/18 01:59:51;;;;;;;12.63;2.60;;;;;;;24.44;50.28;101411.09;7313046;19;145287;-38
2021/12/18 02:02:17;;;;;;;17.20;2.70;;;;;;;24.51;49.54;101431.69;7314447;19;130359;-37
2021/12/18 02:04:43;;;;;;;19.52;2.90;;;;;;;24.51;50.21;101432.50;7314479;19;129284;-38
2021/12/18 02:07:08;;;;;;;10.27;1.92;;;;;;;24.46;50.16;101422.34;7315815;19;129401;-35
2021/12/18 02:10:01;;;;;;;15.25;2.53;;;;;;;24.43;50.14;101409.44;7315088;19;131353;-38
2021/12/18 02:12:29;;;;;;;16.38;2.95;;;;;;;24.46;49.70;101424.97;7313880;19;130118;-35
2021/12/18 02:22:58;;;;;;;15.90;2.75;;;;;;;24.44;49.83;101416.34;7313045;19;129435;-38
2021/12/18 02:25:24;;;;;;;4.95;1.50;;;;;;;24.43;50.31;101412.06;7313637;19;128945;-40
2021/12/18 02:27:52;;;;;;;12.90;2.35;;;;;;;24.45;49.88;101412.78;7314744;19;128961;-37
2021/12/18 02:30:21;;;;;;;9.80;2.05;;;;;;;24.38;50.37;101406.31;7311735;19;129362;-35
2021/12/18 02:32:47;;;;;;;5.57;1.23;;;;;;;24.44;50.39;101413.72;7313798;19;130563;-39
2021/12/18 02:35:26;;;;;;;17.00;3.00;;;;;;;24.39;51.16;101418.47;7313165;19;130738;-36
2021/12/18 02:37:51;;;;;;;8.00;1.60;;;;;;;24.41;49.92;101408.69;7314173;19;128981;-39
2021/12/18 02:43:12;;;;;;;27.40;4.00;;;;;;;24.37;50.23;101402.00;7312317;19;129980;-37
2021/12/18 02:45:37;;;;;;;11.45;2.50;;;;;;;24.39;50.20;101405.34;7311712;19;155285;-38
2021/12/18 02:48:02;;;;;;;10.45;2.08;;;;;;;24.42;50.19;101406.91;7313860;19;128965;-29
2021/12/18 02:50:28;;;;;;;18.90;3.03;;;;;;;24.32;50.08;101391.00;7313325;19;129774;-36
2021/12/18 02:52:53;;;;;;;13.40;2.20;;;;;;;24.38;50.51;101406.31;7313987;19;130200;-38
2021/12/18 02:55:18;;;;;;;16.37;2.77;;;;;;;24.38;49.69;101400.19;7311487;19;147833;-36
2021/12/18 02:57:44;;;;;;;14.43;2.47;;;;;;;24.36;50.29;101402.94;7314156;19;129866;-34
2021/12/18 03:00:09;;;;;;;21.58;3.80;;;;;;;24.36;50.56;101405.56;7312274;19;129729;-35
2021/12/18 03:02:40;;;;;;;11.82;2.15;;;;;;;24.37;50.80;101414.31;7313262;19;130160;-36
2021/12/18 03:05:09;;;;;;;13.27;2.38;;;;;;;24.34;50.27;101415.38;7312231;19;128848;-38
2021/12/18 03:07:34;;;;;;;9.93;1.67;;;;;;;24.35;50.36;101411.78;7314000;19;130851;-33
2021/12/18 03:21:46;;;;;;;10.68;2.15;;;;;;;24.23;50.39;101383.78;7312072;19;129446;-37
2021/12/18 03:23:57;;;;;;;19.55;3.42;;;;;;;24.29;50.02;101385.97;7309955;19;130074;-44
2021/12/18 03:26:22;;;;;;;12.75;2.05;;;;;;;24.25;50.34;101384.50;7310246;19;129136;-35
2021/12/18 03:28:47;;;;;;;9.80;1.77;;;;;;;24.26;50.63;101391.44;7312635;19;154398;-34
2021/12/18 03:31:13;;;;;;;21.70;3.13;;;;;;;24.29;50.64;101388.59;7309833;19;159098;-39
2021/12/18 03:33:38;;;;;;;14.98;2.55;;;;;;;24.30;50.29;101384.16;7310557;19;156176;-34
2021/12/18 03:36:04;;;;;;;10.48;1.85;;;;;;;24.30;50.12;101382.38;7309760;19;129045;-35
2021/12/18 03:38:30;;;;;;;14.15;2.13;;;;;;;24.27;49.96;101390.50;7313612;19;129889;-34
2021/12/18 03:40:55;;;;;;;7.10;1.60;;;;;;;24.24;51.17;101388.09;7311786;19;129520;-31
2021/12/18 03:43:20;;;;;;;14.18;2.28;;;;;;;24.26;50.40;101388.78;7309228;19;147499;-31
2021/12/18 03:45:46;;;;;;;9.93;2.03;;;;;;;24.21;50.60;101380.41;7308831;19;147483;-37
2021/12/18 03:48:11;;;;;;;21.50;3.30;;;;;;;24.26;50.75;101387.97;7311102;19;153137;-38
2021/12/18 03:50:36;;;;;;;19.63;3.03;;;;;;;24.25;50.34;101384.50;7310837;19;157891;-33
2021/12/18 03:53:02;;;;;;;13.75;2.58;;;;;;;24.26;50.29;101387.97;7309992;19;159612;-35
2021/12/18 03:55:27;;;;;;;19.30;3.20;;;;;;;24.25;50.94;101391.53;7311043;19;129599;-35
2021/12/18 03:57:53;;;;;;;12.83;2.80;;;;;;;24.23;50.87;101386.41;7312015;19;129341;-31
2021/12/18 04:00:19;;;;;;;14.88;2.40;;;;;;;24.25;50.10;101384.50;7313314;19;130326;-32
2021/12/18 04:02:45;;;;;;;12.07;2.53;;;;;;;24.25;50.37;101392.41;7310083;19;132402;-38
2021/12/18 04:05:11;;;;;;;17.90;2.50;;;;;;;24.20;50.60;101385.78;7312188;19;131105;-37
2021/12/18 04:07:42;;;;;;;14.97;2.53;;;;;;;24.20;50.92;101391.91;7313290;19;130018;-37
2021/12/18 04:10:12;;;;;;;9.88;1.75;;;;;;;24.20;50.97;101385.78;7313751;19;130201;-37
2021/12/18 04:12:38;;;;;;;15.25;2.60;;;;;;;24.15;51.07;101380.88;7312665;19;129069;-37
2021/12/18 04:15:04;;;;;;;11.85;2.50;;;;;;;24.18;50.95;101383.28;7311190;19;134938;-38
2021/12/18 04:17:29;;;;;;;12.50;2.23;;;;;;;24.14;51.47;101375.75;7312617;19;129291;-38
2021/12/18 04:19:54;;;;;;;14.52;2.55;;;;;;;24.16;51.20;101379.91;7311968;19;130107;-38
2021/12/18 04:22:19;;;;;;;16.70;2.50;;;;;;;24.18;50.75;101378.00;7310446;19;159305;-36
2021/12/18 04:24:45;;;;;;;15.23;2.27;;;;;;;24.16;50.61;101379.91;7308431;19;154236;-35
2021/12/18 04:27:10;;;;;;;13.13;2.08;;;;;;;24.17;51.08;101373.72;7312834;19;128930;-36
2021/12/18 04:29:35;;;;;;;9.43;2.00;;;;;;;24.17;50.37;101371.09;7310370;19;158295;-39
2021/12/18 04:32:01;;;;;;;14.48;2.30;;;;;;;24.16;50.81;101371.22;7308407;19;158414;-37
2021/12/18 04:34:26;;;;;;;17.30;2.63;;;;;;;24.13;51.89;101367.00;7312361;19;129597;-36
2021/12/18 04:36:51;;;;;;;12.65;1.98;;;;;;;24.10;51.16;101364.59;7308724;19;155926;-38
2021/12/18 04:39:16;;;;;;;15.27;2.43;;;;;;;24.05;51.38;101356.22;7311200;19;129695;-37
2021/12/18 04:41:48;;;;;;;17.63;2.85;;;;;;;24.16;51.11;101364.16;7310214;19;158428;-38
2021/12/18 04:44:13;;;;;;;23.27;3.03;;;;;;;24.16;50.79;101369.41;7309975;19;128923;-34
2021/12/18 04:46:39;;;;;;;12.65;2.08;;;;;;;24.14;50.77;101366.06;7308230;19;153976;-38
2021/12/18 04:49:04;;;;;;;12.27;2.03;;;;;;;24.10;52.10;101369.88;7311226;19;159114;-37
2021/12/18 04:51:30;;;;;;;15.70;2.80;;;;;;;24.10;50.31;101369.88;7310512;19;141535;-39
2021/12/18 04:53:56;;;;;;;14.52;2.55;;;;;;;24.02;51.18;101356.47;7311523;19;129078;-37
2021/12/18 04:56:21;;;;;;;14.73;2.10;;;;;;;24.09;50.92;101368.19;7310977;19;129966;-35
2021/12/18 04:58:46;;;;;;;11.77;2.27;;;;;;;24.02;51.41;101364.34;7310831;19;130022;-35
2021/12/18 05:01:12;;;;;;;18.95;3.05;;;;;;;24.11;50.67;101374.16;7310013;19;158508;-37
2021/12/18 05:03:39;;;;;;;17.25;2.75;;;;;;;24.07;50.57;101370.09;7310524;19;129128;-37
2021/12/18 05:06:04;;;;;;;11.02;2.15;;;;;;;24.09;51.05;101373.47;7309793;19;129772;-35
2021/12/18 05:08:30;;;;;;;15.15;2.53;;;;;;;24.09;50.69;101365.56;7309519;19;159105;-38
2021/12/18 05:10:55;;;;;;;24.88;3.67;;;;;;;24.09;51.25;101373.47;7307645;19;132452;-37
2021/12/18 05:13:21;;;;;;;13.23;2.33;;;;;;;24.05;50.75;101374.63;7306464;19;129276;-36
2021/12/18 05:15:46;;;;;;;15.05;2.58;;;;;;;24.04;50.41;101372.94;7307853;19;129282;-38
2021/12/18 05:18:12;;;;;;;14.93;2.42;;;;;;;24.07;51.07;101380.59;7311145;19;130136;-34
2021/12/18 05:20:37;;;;;;;16.20;2.67;;;;;;;24.05;50.73;101381.66;7309194;19;159465;-34
2021/12/18 05:23:02;;;;;;;12.32;1.92;;;;;;;24.04;51.42;101380.84;7308260;19;129253;-32
2021/12/18 05:25:28;;;;;;;18.42;2.70;;;;;;;24.02;51.10;101374.84;7308470;19;129061;-33
2021/12/18 05:27:53;;;;;;;8.45;1.73;;;;;;;24.05;51.13;101377.25;7307850;19;158924;-35
2021/12/18 05:30:18;;;;;;;21.75;3.38;;;;;;;24.05;50.65;101382.50;7307645;19;158595;-36
2021/12/18 05:32:43;;;;;;;13.90;2.10;;;;;;;24.02;51.13;101384.50;7306826;19;155222;-37
2021/12/18 05:35:09;;;;;;;14.00;2.33;;;;;;;24.04;50.96;101387.88;7306073;19;142712;-35
2021/12/18 05:37:52;;;;;;;16.40;2.58;;;;;;;24.00;50.73;101392.50;7309951;19;129207;-38
2021/12/18 05:40:20;;;;;;;16.83;2.47;;;;;;;24.02;50.40;101388.00;7310215;19;131066;-36
2021/12/18 05:42:46;;;;;;;11.57;2.00;;;;;;;23.98;51.88;101394.41;7308509;19;129875;-33
2021/12/18 05:45:12;;;;;;;12.63;1.85;;;;;;;24.01;50.89;101398.59;7308245;19;129460;-31
2021/12/18 05:47:38;;;;;;;11.35;1.95;;;;;;;24.02;50.84;101398.50;7307435;19;131518;-37
2021/12/18 05:50:04;;;;;;;18.05;2.65;;;;;;;24.02;50.74;101388.00;7309512;19;130315;-37
2021/12/18 05:52:30;;;;;;;17.67;2.58;;;;;;;24.00;50.64;101387.25;7309071;19;129176;-33
2021/12/18 05:54:55;;;;;;;15.10;2.33;;;;;;;24.01;50.67;101391.56;7306343;19;154431;-41
2021/12/18 05:57:20;;;;;;;15.93;2.30;;;;;;;24.03;51.02;101384.41;7307698;19;146048;-30
2021/12/18 05:59:46;;;;;;;13.23;2.03;;;;;;;24.01;51.13;101381.06;7306343;19;159285;-34
2021/12/18 06:02:11;;;;;;;17.43;2.47;;;;;;;24.00;50.93;101384.63;7307127;19;154424;-33
2021/12/18 06:04:36;;;;;;;21.50;3.10;;;;;;;23.95;50.85;101386.72;7308221;19;154371;-34
2021/12/18 06:07:06;;;;;;;9.50;1.63;;;;;;;23.96;51.60;101382.31;7315338;19;129338;-40
2021/12/18 06:09:35;;;;;;;12.65;2.08;;;;;;;23.95;50.94;101381.47;7316917;19;130724;-39
2021/12/18 06:12:01;;;;;;;6.95;1.60;;;;;;;23.97;51.31;101382.19;7314366;19;129720;-34
2021/12/18 06:14:28;;;;;;;12.48;2.08;;;;;;;23.94;51.01;101379.78;7315263;19;129385;-32
2021/12/18 06:16:53;;;;;;;10.07;1.67;;;;;;;23.91;50.79;101380.03;7312896;19;131182;-36
2021/12/18 06:19:19;;;;;;;12.27;1.95;;;;;;;23.93;50.86;101380.72;7314710;19;130021;-35
2021/12/18 06:21:44;;;;;;;11.83;2.10;;;;;;;23.91;51.65;101374.78;7314843;19;129131;-38
2021/12/18 06:24:09;;;;;;;15.15;2.42;;;;;;;23.85;50.94;101362.06;7311237;19;156214;-38
2021/12/18 06:26:34;;;;;;;18.17;2.83;;;;;;;23.92;51.23;101370.34;7310797;19;157776;-38
2021/12/18 06:29:00;;;;;;;15.70;2.63;;;;;;;23.93;51.62;101369.41;7314601;19;129335;-33
2021/12/18 06:31:25;;;;;;;11.95;1.83;;;;;;;23.92;51.66;101367.69;7312769;19;154649;-35
2021/12/18 06:33:50;;;;;;;11.50;2.45;;;;;;;23.94;51.18;101371.06;7312392;19;155541;-39
2021/12/18 06:36:16;;;;;;;19.25;2.67;;;;;;;23.90;51.32;101375.69;7312964;19;129113;-29
2021/12/18 06:38:41;;;;;;;11.95;1.88;;;;;;;23.91;50.84;101368.66;7314958;19;130150;-38
2021/12/18 06:41:06;;;;;;;9.68;1.77;;;;;;;23.93;50.91;101372.03;7313421;19;150829;-36
2021/12/18 06:43:32;;;;;;;16.20;2.83;;;;;;;23.89;51.36;101368.78;7310871;19;154851;-30
2021/12/18 06:45:57;;;;;;;14.73;2.65;;;;;;;23.84;51.16;101352.53;7312753;19;130054;-33
2021/12/18 06:48:22;;;;;;;18.20;2.67;;;;;;;23.91;51.18;101372.16;7314811;19;130421;-33
2021/12/18 06:50:49;;;;;;;11.77;1.83;;;;;;;23.89;51.54;101371.41;7313010;19;150622;-34
2021/12/18 06:53:14;;;;;;;14.02;2.20;;;;;;;23.89;50.88;101363.53;7313555;19;129189;-32
2021/12/18 06:55:39;;;;;;;12.75;2.15;;;;;;;23.89;51.20;101363.53;7309906;19;159596;-35
2021/12/18 06:58:04;;;;;;;13.57;2.20;;;;;;;23.89;51.26;101366.16;7314382;19;130827;-30
2021/12/18 07:00:30;;;;;;;14.38;2.28;;;;;;;23.88;51.30;101364.47;7314860;19;129007;-35
2021/12/18 07:02:56;;;;;;;14.53;2.40;;;;;;;23.85;51.38;101364.69;7314238;19;129056;-37
2021/12/18 07:05:21;;;;;;;15.88;2.28;;;;;;;23.83;50.98;101369.22;7311525;19;131206;-41
2021/12/18 07:07:49;;;;;;;12.50;1.90;;;;;;;23.85;51.56;101364.69;7312113;19;159789;-33
2021/12/18 07:10:14;;;;;;;14.32;2.53;;;;;;;23.87;51.22;101360.16;7313693;19;129491;-35
2021/12/18 07:12:41;;;;;;;9.73;1.75;;;;;;;23.87;51.09;101362.78;7312752;19;129363;-37
2021/12/18 07:15:08;;;;;;;13.55;2.33;;;;;;;23.87;51.15;101357.53;7311376;19;129325;-40
2021/12/18 07:17:34;;;;;;;13.80;2.17;;;;;;;23.86;51.68;101355.03;7314560;19;130197;-38
2021/12/18 07:19:59;;;;;;;13.18;2.17;;;;;;;23.86;51.56;101353.25;7313076;19;141578;-34
2021/12/18 07:22:24;;;;;;;24.90;3.28;;;;;;;23.81;51.54;101352.75;7310631;19;154944;-37
2021/12/18 07:24:50;;;;;;;22.23;3.37;;;;;;;23.83;50.90;101356.06;7309953;19;130256;-34
2021/12/18 07:27:15;;;;;;;20.52;2.83;;;;;;;23.84;50.89;101357.78;7311758;19;129256;-34
2021/12/18 07:29:40;;;;;;;21.47;3.20;;;;;;;23.84;50.93;101352.53;7312829;19;128964;-36
2021/12/18 07:32:06;;;;;;;17.08;2.60;;;;;;;23.83;51.67;101356.06;7310243;19;137429;-35
2021/12/18 07:34:32;;;;;;;17.17;2.47;;;;;;;23.71;51.42;101341.22;7311189;19;129727;-32
2021/12/18 07:36:58;;;;;;;16.25;2.78;;;;;;;23.80;51.36;101356.31;7308822;19;159090;-34
2021/12/18 07:39:23;;;;;;;22.35;3.63;;;;;;;23.81;50.96;101360.63;7311557;19;129110;-36
2021/12/18 07:41:48;;;;;;;12.18;1.98;;;;;;;23.78;50.69;101355.59;7310912;19;154940;-34
2021/12/18 07:44:13;;;;;;;12.15;1.88;;;;;;;23.80;50.67;101356.31;7310448;19;130797;-34
2021/12/18 07:46:39;;;;;;;17.15;2.38;;;;;;;23.81;50.88;101363.25;7307525;19;158416;-37
2021/12/18 07:49:06;;;;;;;18.10;2.75;;;;;;;23.79;51.34;101349.38;7312834;19;129447;-34
2021/12/18 07:51:31;;;;;;;11.05;2.40;;;;;;;23.70;50.73;101344.78;7311070;19;129181;-37
2021/12/18 07:53:57;;;;;;;23.63;3.83;;;;;;;23.79;51.38;101354.63;7310850;19;131429;-37
2021/12/18 07:56:22;;;;;;;16.15;2.35;;;;;;;23.77;50.79;101359.16;7309415;19;129938;-37
2021/12/18 07:58:48;;;;;;;13.38;1.90;;;;;;;23.84;51.15;101356.91;7311731;19;129699;-34
2021/12/18 08:01:13;;;;;;;13.68;2.03;;;;;;;23.73;51.25;101343.75;7310494;19;154662;-32
2021/12/18 08:03:40;;;;;;;9.77;1.70;;;;;;;23.80;50.53;101356.31;7310648;19;129661;-43
2021/12/18 08:06:06;;;;;;;10.98;1.75;;;;;;;23.78;51.42;101358.22;7309670;19;129655;-38
2021/12/18 08:08:31;;;;;;;18.48;2.95;;;;;;;23.76;51.04;101360.13;7312127;19;129731;-35
2021/12/18 08:10:56;;;;;;;14.80;2.65;;;;;;;23.74;51.05;101362.00;7311862;19;128983;-34
2021/12/18 08:13:22;;;;;;;16.23;2.05;;;;;;;23.77;51.20;101353.91;7310836;19;149185;-39
2021/12/18 08:15:47;;;;;;;10.60;1.60;;;;;;;23.75;50.78;101355.78;7309342;19;157951;-36
2021/12/18 08:18:13;;;;;;;9.73;1.52;;;;;;;23.71;51.13;101349.09;7310977;19;129081;-35
2021/12/18 08:20:38;;;;;;;20.77;3.35;;;;;;;23.73;51.09;101355.09;7309701;19;153936;-33
2021/12/18 08:23:04;;;;;;;16.00;3.08;;;;;;;23.71;50.91;101349.09;7310886;19;129193;-37
2021/12/18 08:25:30;;;;;;;15.55;2.20;;;;;;;23.74;51.09;101341.00;7308511;19;132149;-38
2021/12/18 08:27:58;;;;;;;9.53;1.77;;;;;;;23.71;51.56;101351.72;7310631;19;129267;-36
2021/12/18 08:30:24;;;;;;;15.85;2.10;;;;;;;23.70;51.70;101355.28;7311645;19;129461;-37
2021/12/18 08:32:49;;;;;;;10.17;1.63;;;;;;;23.76;51.41;101347.00;7312098;19;130476;-37
2021/12/18 08:35:15;;;;;;;16.63;2.40;;;;;;;23.75;51.54;101355.78;7309845;19;142844;-38
2021/12/18 08:37:40;;;;;;;17.17;2.75;;;;;;;23.74;51.21;101356.75;7311034;19;130033;-34
2021/12/18 08:40:07;;;;;;;9.07;1.73;;;;;;;23.72;51.09;101363.91;7313095;19;129160;-36
2021/12/18 08:42:32;;;;;;;14.75;2.40;;;;;;;23.74;51.47;101350.66;7310193;19;132144;-37
2021/12/18 08:44:57;;;;;;;16.55;2.53;;;;;;;23.76;50.71;101354.88;7307051;19;130869;-37
2021/12/18 08:47:22;;;;;;;19.70;2.80;;;;;;;23.75;51.43;101347.91;7309909;19;154568;-36
2021/12/18 08:49:48;;;;;;;12.80;1.90;;;;;;;23.73;51.35;101349.84;7309325;19;153915;-37
2021/12/18 08:52:13;;;;;;;18.07;2.93;;;;;;;23.73;51.58;101354.25;7307740;19;157833;-37
2021/12/18 08:54:38;;;;;;;18.63;2.42;;;;;;;23.72;50.86;101353.41;7308443;19;149303;-38
2021/12/18 08:57:04;;;;;;;13.60;2.15;;;;;;;23.72;51.77;101353.41;7310508;19;141459;-38
2021/12/18 08:59:29;;;;;;;12.25;2.15;;;;;;;23.72;51.55;101353.41;7310980;19;129196;-38
2021/12/18 09:01:54;;;;;;;17.65;2.83;;;;;;;23.72;51.24;101356.03;7308652;19;158094;-36
2021/12/18 09:04:19;;;;;;;20.70;2.72;;;;;;;23.74;50.99;101354.13;7308085;19;158097;-35
2021/12/18 09:06:45;;;;;;;15.57;2.73;;;;;;;23.73;51.19;101355.09;7304902;19;154786;-37
2021/12/18 09:09:10;;;;;;;10.77;1.80;;;;;;;23.73;51.85;101360.34;7309129;19;154532;-35
2021/12/18 09:11:35;;;;;;;11.93;2.25;;;;;;;23.63;51.32;101343.56;7308678;19;158273;-34
2021/12/18 09:14:02;;;;;;;13.07;2.38;;;;;;;23.68;51.19;101351.97;7307892;19;158701;-37
2021/12/18 09:16:27;;;;;;;;;;;;;;;23.69;53.23;101348.38;7309520;19;129256;-35
2021/12/18 09:18:53;;;;;;;19.92;3.05;;;;;;;23.63;51.43;101354.06;7309836;19;129177;-36
2021/12/18 09:21:20;;;;;;;29.02;4.47;;;;;;;23.57;51.81;101330.03;7306680;19;157260;-37
2021/12/18 09:23:45;;;;;;;20.13;3.65;;;;;;;23.69;51.63;101337.88;7307924;19;129778;-34
2021/12/18 09:26:14;;;;;;;12.25;1.88;;;;;;;23.61;51.73;101324.47;7306715;19;128979;-38
2021/12/18 09:28:39;;;;;;;15.73;2.45;;;;;;;23.67;51.42;101333.69;7310529;19;129466;-36
2021/12/18 09:31:04;;;;;;;11.10;1.92;;;;;;;23.65;51.23;101339.03;7309318;19;130309;-38
2021/12/18 09:33:30;;;;;;;15.65;2.30;;;;;;;23.67;51.69;101334.50;7308126;19;159266;-37
2021/12/18 09:35:55;;;;;;;11.98;2.63;;;;;;;23.64;52.04;101339.97;7306211;19;153816;-40
2021/12/18 09:38:20;;;;;;;23.63;3.33;;;;;;;23.65;51.74;101336.41;7310491;19;154162;-38
2021/12/18 09:40:46;;;;;;;17.92;2.58;;;;;;;23.66;52.05;101343.34;7315265;19;157161;-36
2021/12/18 09:43:11;;;;;;;11.20;2.10;;;;;;;23.64;51.12;101329.47;7315984;19;130610;-35
2021/12/18 09:45:37;;;;;;;19.63;2.97;;;;;;;23.65;51.35;101325.06;7312281;19;155310;-36
2021/12/18 09:48:05;;;;;;;15.48;2.60;;;;;;;23.62;51.88;101326.13;7317631;19;132720;-38
2021/12/18 09:50:32;;;;;;;15.70;2.47;;;;;;;23.60;51.25;101322.75;7316292;19;130852;-34
2021/12/18 09:52:58;;;;;;;14.95;2.45;;;;;;;23.65;51.96;101325.06;7314694;19;129776;-37
2021/12/18 09:55:23;;;;;;;18.27;2.75;;;;;;;23.63;51.33;101322.56;7315555;19;128939;-37
2021/12/18 09:57:49;;;;;;;13.02;1.98;;;;;;;23.63;51.93;101314.69;7315913;19;129150;-37
2021/12/18 10:00:19;;;;;;;12.77;1.97;;;;;;;23.61;51.59;101308.69;7316254;19;129604;-38
2021/12/18 10:02:44;;;;;;;7.32;1.33;;;;;;;23.63;51.58;101304.19;7314635;19;132468;-39
2021/12/18 10:05:39;;;;;;;12.68;2.28;;;;;;;23.62;52.90;101297.25;7313234;19;129267;-36
2021/12/18 10:08:11;;;;;;;18.98;3.70;;;;;;;23.62;51.31;101299.03;7313390;19;140728;-38
2021/12/18 10:10:37;;;;;;;16.35;2.55;;;;;;;23.61;51.97;101287.69;7315743;19;129292;-37
2021/12/18 10:13:06;;;;;;;13.85;2.47;;;;;;;23.63;51.46;101285.81;7316022;19;135472;-39
2021/12/18 10:15:31;;;;;;;18.13;2.80;;;;;;;23.63;51.17;101280.56;7312096;19;129359;-37
2021/12/18 10:18:08;;;;;;;11.15;1.92;;;;;;;23.63;52.29;101284.97;7315973;19;129065;-38
2021/12/18 10:20:35;;;;;;;25.88;3.72;;;;;;;23.60;52.03;101278.13;7314910;19;129257;-38
2021/12/18 10:23:04;;;;;;;14.07;2.40;;;;;;;23.61;51.41;101276.34;7314398;19;130775;-37
2021/12/18 10:25:36;;;;;;;16.20;2.47;;;;;;;23.58;51.55;101272.16;7313560;19;129295;-37
2021/12/18 10:28:11;;;;;;;15.57;2.90;;;;;;;23.61;51.93;101276.34;7314941;19;130030;-35
2021/12/18 10:30:44;;;;;;;15.05;2.38;;;;;;;23.51;52.09;101259.59;7315024;19;129385;-38
2021/12/18 10:33:11;;;;;;;17.05;2.53;;;;;;;23.59;51.34;101268.59;7314059;19;129865;-36
2021/12/18 10:35:46;;;;;;;17.00;3.00;;;;;;;23.57;52.66;101265.22;7313695;19;129520;-37
2021/12/18 10:38:37;;;;;;;9.82;1.65;;;;;;;23.56;53.08;101262.72;7315387;19;128812;-36
2021/12/18 10:41:18;;;;;;;13.20;2.30;;;;;;;23.47;52.73;101237.97;7314639;19;130680;-36
2021/12/18 10:44:08;;;;;;;15.48;2.78;;;;;;;23.58;53.19;101261.66;7314113;19;130327;-38
2021/12/18 10:46:43;;;;;;;15.75;2.65;;;;;;;23.57;52.62;101254.72;7312018;19;129583;-34
2021/12/18 10:49:11;;;;;;;17.60;2.80;;;;;;;23.44;52.03;101232.94;7314212;19;128994;-34
2021/12/18 10:51:38;;;;;;;17.98;2.75;;;;;;;23.48;51.27;101255.41;7313139;19;129255;-38
2021/12/18 10:54:12;;;;;;;9.40;1.83;;;;;;;23.51;51.60;101249.94;7313943;19;129137;-35
2021/12/18 10:56:51;;;;;;;19.55;2.83;;;;;;;23.42;51.98;101234.84;7312790;19;129246;-36
2021/12/18 10:59:36;;;;;;;14.70;2.72;;;;;;;23.48;52.29;101255.41;7314700;19;128908;-38
2021/12/18 11:02:05;;;;;;;17.45;3.08;;;;;;;23.53;50.87;101242.78;7313289;19;130803;-33
2021/12/18 11:04:32;;;;;;;16.40;2.45;;;;;;;23.53;51.35;101252.44;7312426;19;129866;-34
2021/12/18 11:06:58;;;;;;;15.45;2.85;;;;;;;23.55;51.46;101246.13;7311450;19;129333;-33
2021/12/18 11:09:33;;;;;;;17.60;2.65;;;;;;;23.54;52.19;101244.44;7313901;19;129660;-34
2021/12/18 11:14:37;;;;;;;21.13;3.30;;;;;;;23.54;50.94;101239.19;7312868;19;129486;-33
2021/12/18 11:17:04;;;;;;;13.07;2.40;;;;;;;23.52;51.01;101233.22;7309912;19;129767;-32
2021/12/18 11:19:32;;;;;;;33.42;4.55;;;;;;;23.55;51.48;101225.09;7311168;19;129681;-36
2021/12/18 11:22:06;;;;;;;22.75;3.63;;;;;;;23.49;52.83;101227.34;7309797;19;129978;-39
2021/12/18 11:24:41;;;;;;;27.67;4.10;;;;;;;23.52;51.88;101219.28;7311233;19;130679;-38
2021/12/18 11:27:10;;;;;;;21.65;3.30;;;;;;;23.51;51.61;101215.81;7313096;19;129366;-36
2021/12/18 11:29:40;;;;;;;21.42;3.13;;;;;;;23.51;51.53;101213.19;7312802;19;129231;-31
2021/12/18 11:32:11;;;;;;;18.77;2.92;;;;;;;23.50;51.68;101211.50;7311947;19;131156;-40
2021/12/18 11:34:38;;;;;;;13.68;2.33;;;;;;;23.52;51.82;101199.09;7311063;19;130362;-35
2021/12/18 11:37:06;;;;;;;17.98;2.65;;;;;;;23.50;51.52;101201.00;7309819;19;129286;-35
2021/12/18 11:39:33;;;;;;;23.75;3.50;;;;;;;23.46;51.19;101186.41;7312378;19;129063;-38
2021/12/18 11:41:59;;;;;;;14.27;2.33;;;;;;;23.48;51.56;101186.31;7311005;19;129410;-35
2021/12/18 11:44:48;;;;;;;18.30;2.67;;;;;;;23.43;51.43;101173.53;7311198;19;129629;-32
2021/12/18 11:47:37;;;;;;;17.17;2.90;;;;;;;23.48;53.05;101179.28;7309085;19;129064;-36
2021/12/18 11:50:19;;;;;;;17.92;2.90;;;;;;;23.48;52.51;101168.78;7311315;19;130325;-33